Time;durP1;ratioP1;P1;durP2;ratioP2;P2;SDS_P1;SDS_P2;PMS_P1;PMS_P2;Temp;Humidity;BMP_temperature;BMP_pressure;BME280_temperature;BME280_humidity;BME280_pressure;Samples;Min_cycle;Max_cycle;Signal;HPM_P1;HPM_P2
2021/05/22 00:01:42;;;;;;;3.73;1.50;;;;;;;;;;5071248;28;20315;-65
2021/05/22 00:04:09;;;;;;;4.17;1.53;;;;;;;;;;5067547;28;20024;-65
2021/05/22 00:06:34;;;;;;;6.27;1.90;;;;;;;;;;5066710;28;20059;-65
2021/05/22 00:09:00;;;;;;;5.60;1.73;;;;;;;;;;5071656;28;20033;-65
2021/05/22 00:11:25;;;;;;;3.83;1.90;;;;;;;;;;5071634;28;20532;-65
2021/05/22 00:13:50;;;;;;;6.30;1.70;;;;;;;;;;5071040;28;20053;-65
2021/05/22 00:16:16;;;;;;;4.60;1.90;;;;;;;;;;5067732;28;20032;-65
2021/05/22 00:18:41;;;;;;;3.30;1.60;;;;;;;;;;5071625;28;20396;-65
2021/05/22 00:21:07;;;;;;;4.23;1.43;;;;;;;;;;5070961;28;20063;-65
2021/05/22 00:23:32;;;;;;;4.43;1.63;;;;;;;;;;5071255;28;20421;-65
2021/05/22 00:25:57;;;;;;;4.23;1.53;;;;;;;;;;5068071;28;20025;-65
2021/05/22 00:28:23;;;;;;;3.93;1.40;;;;;;;;;;5071865;28;20034;-65
2021/05/22 00:30:48;;;;;;;4.37;1.70;;;;;;;;;;5067598;28;20036;-65
2021/05/22 00:33:13;;;;;;;5.03;1.50;;;;;;;;;;5068187;28;20082;-65
2021/05/22 00:35:38;;;;;;;6.07;2.20;;;;;;;;;;5070122;28;20032;-65
2021/05/22 00:38:04;;;;;;;4.23;1.40;;;;;;;;;;5069996;28;20135;-65
2021/05/22 00:40:29;;;;;;;6.97;1.70;;;;;;;;;;5070860;28;20370;-65
2021/05/22 00:42:54;;;;;;;3.70;1.20;;;;;;;;;;5061959;28;20488;-65
2021/05/22 00:45:21;;;;;;;4.00;1.20;;;;;;;;;;5071433;28;20028;-65
2021/05/22 00:47:50;;;;;;;3.60;1.40;;;;;;;;;;5069463;28;20496;-65
2021/05/22 00:50:18;;;;;;;7.37;1.90;;;;;;;;;;5069692;28;20524;-65
2021/05/22 00:52:43;;;;;;;8.53;1.63;;;;;;;;;;5064890;28;20029;-65
2021/05/22 00:55:09;;;;;;;5.57;1.50;;;;;;;;;;5065968;28;20123;-65
2021/05/22 00:57:36;;;;;;;5.50;1.37;;;;;;;;;;5061238;28;20082;-65
2021/05/22 01:00:01;;;;;;;3.90;1.47;;;;;;;;;;5070367;28;21031;-65
2021/05/22 01:02:26;;;;;;;3.37;1.27;;;;;;;;;;5069198;28;20052;-65
2021/05/22 01:04:52;;;;;;;3.23;1.30;;;;;;;;;;5080922;22;20088;-68
2021/05/22 01:07:18;;;;;;;5.30;1.30;;;;;;;;;;5068247;28;20063;-68
2021/05/22 01:09:44;;;;;;;4.10;1.30;;;;;;;;;;5067771;28;20456;-68
2021/05/22 01:12:10;;;;;;;3.23;1.30;;;;;;;;;;5055688;28;20452;-68
2021/05/22 01:14:38;;;;;;;3.63;1.20;;;;;;;;;;5070040;28;20125;-68
2021/05/22 01:17:04;;;;;;;3.90;1.30;;;;;;;;;;5069452;28;20500;-68
2021/05/22 01:19:41;;;;;;;3.00;1.37;;;;;;;;;;5069527;28;20036;-68
2021/05/22 01:22:07;;;;;;;2.33;1.20;;;;;;;;;;5066289;28;20069;-68
2021/05/22 01:24:35;;;;;;;4.07;1.40;;;;;;;;;;5055151;28;20063;-68
2021/05/22 01:27:01;;;;;;;4.87;1.87;;;;;;;;;;5066951;28;20126;-68
2021/05/22 01:29:26;;;;;;;3.73;1.30;;;;;;;;;;5068477;28;20032;-68
2021/05/22 01:31:51;;;;;;;3.83;1.20;;;;;;;;;;5067126;28;20495;-68
2021/05/22 01:34:17;;;;;;;5.50;1.30;;;;;;;;;;5069705;28;20031;-68
2021/05/22 01:36:42;;;;;;;5.27;1.63;;;;;;;;;;5065808;28;20469;-68
2021/05/22 01:39:07;;;;;;;7.37;1.53;;;;;;;;;;5069213;28;20037;-68
2021/05/22 01:41:33;;;;;;;4.87;1.50;;;;;;;;;;5066944;28;20064;-68
2021/05/22 01:43:58;;;;;;;3.53;1.43;;;;;;;;;;5057991;28;20029;-68
2021/05/22 01:46:24;;;;;;;4.97;1.40;;;;;;;;;;5066996;28;20055;-68
2021/05/22 01:48:50;;;;;;;2.90;1.10;;;;;;;;;;5068837;28;20029;-68
2021/05/22 01:51:19;;;;;;;4.33;1.27;;;;;;;;;;5067756;28;20032;-68
2021/05/22 01:53:45;;;;;;;2.63;1.20;;;;;;;;;;5069235;28;20358;-68
2021/05/22 01:56:10;;;;;;;7.37;1.20;;;;;;;;;;5068723;28;20040;-68
2021/05/22 01:58:36;;;;;;;7.30;1.50;;;;;;;;;;5066533;28;20464;-68
2021/05/22 02:01:01;;;;;;;4.57;1.50;;;;;;;;;;5061096;28;20079;-68
2021/05/22 02:03:27;;;;;;;5.27;1.30;;;;;;;;;;5061842;28;20357;-68
2021/05/22 02:05:53;;;;;;;7.87;1.67;;;;;;;;;;5067114;28;20090;-68
2021/05/22 02:08:20;;;;;;;3.77;1.40;;;;;;;;;;5065496;28;20033;-68
2021/05/22 02:10:49;;;;;;;4.40;1.50;;;;;;;;;;5058865;28;20025;-68
2021/05/22 02:13:15;;;;;;;2.20;1.20;;;;;;;;;;5063723;28;20048;-68
2021/05/22 02:15:44;;;;;;;3.60;1.33;;;;;;;;;;5068628;28;20067;-68
2021/05/22 02:18:11;;;;;;;4.83;1.30;;;;;;;;;;5068258;28;20032;-68
2021/05/22 02:20:36;;;;;;;6.23;1.20;;;;;;;;;;5061174;28;20032;-68
2021/05/22 02:23:02;;;;;;;3.37;1.33;;;;;;;;;;5062895;28;20021;-68
2021/05/22 02:25:27;;;;;;;4.30;1.23;;;;;;;;;;5061492;28;20372;-67
2021/05/22 02:27:53;;;;;;;4.93;1.67;;;;;;;;;;5065298;28;20027;-68
2021/05/22 02:30:19;;;;;;;2.70;1.07;;;;;;;;;;5066404;28;20028;-66
2021/05/22 02:32:46;;;;;;;5.73;0.97;;;;;;;;;;5064882;28;20043;-66
2021/05/22 02:35:12;;;;;;;4.40;1.40;;;;;;;;;;5063278;28;20388;-66
2021/05/22 02:37:38;;;;;;;6.30;1.53;;;;;;;;;;5063213;28;20074;-68
2021/05/22 02:40:14;;;;;;;2.57;1.00;;;;;;;;;;5058531;28;20481;-68
2021/05/22 02:42:42;;;;;;;3.33;1.03;;;;;;;;;;5063630;28;20025;-68
2021/05/22 02:45:08;;;;;;;2.80;1.27;;;;;;;;;;5064492;28;20023;-68
2021/05/22 02:47:34;;;;;;;8.07;1.00;;;;;;;;;;5065840;28;20519;-68
2021/05/22 02:50:04;;;;;;;2.87;1.00;;;;;;;;;;5061160;28;20074;-66
2021/05/22 02:52:30;;;;;;;3.63;1.10;;;;;;;;;;5067475;28;20028;-68
2021/05/22 02:54:56;;;;;;;4.03;1.43;;;;;;;;;;5067816;28;20037;-66
2021/05/22 02:57:23;;;;;;;2.90;1.10;;;;;;;;;;5056629;28;20440;-66
2021/05/22 02:59:49;;;;;;;4.10;0.80;;;;;;;;;;5065794;28;20036;-65
2021/05/22 03:02:15;;;;;;;7.03;1.17;;;;;;;;;;5056586;28;20036;-65
2021/05/22 03:04:41;;;;;;;5.30;0.90;;;;;;;;;;5067808;28;20419;-65
2021/05/22 03:07:06;;;;;;;3.07;0.90;;;;;;;;;;5068841;28;20017;-65
2021/05/22 03:09:32;;;;;;;2.87;1.10;;;;;;;;;;5069169;28;20096;-65
2021/05/22 03:11:57;;;;;;;4.77;1.23;;;;;;;;;;5060528;28;20040;-65
2021/05/22 03:14:22;;;;;;;3.97;0.87;;;;;;;;;;5060969;28;20037;-65
2021/05/22 03:16:47;;;;;;;7.00;0.80;;;;;;;;;;5060594;28;20056;-65
2021/05/22 03:19:13;;;;;;;2.80;1.10;;;;;;;;;;5064657;28;20037;-65
2021/05/22 03:21:38;;;;;;;5.10;0.87;;;;;;;;;;5066709;28;20032;-65
2021/05/22 03:24:04;;;;;;;4.03;1.30;;;;;;;;;;5069203;28;20468;-65
2021/05/22 03:26:29;;;;;;;5.57;1.00;;;;;;;;;;5062178;28;20096;-65
2021/05/22 03:28:54;;;;;;;5.50;0.90;;;;;;;;;;5064426;28;20020;-66
2021/05/22 03:31:20;;;;;;;1.50;0.70;;;;;;;;;;5058508;28;20041;-65
2021/05/22 03:33:45;;;;;;;4.77;0.80;;;;;;;;;;5059419;28;20071;-65
2021/05/22 03:36:11;;;;;;;2.97;0.93;;;;;;;;;;5060220;28;20028;-66
2021/05/22 03:38:36;;;;;;;3.93;1.10;;;;;;;;;;5067273;28;20059;-66
2021/05/22 03:41:01;;;;;;;5.07;0.90;;;;;;;;;;5063772;28;20071;-65
2021/05/22 03:43:27;;;;;;;3.63;0.90;;;;;;;;;;5057378;28;20256;-65
2021/05/22 03:45:52;;;;;;;4.97;1.20;;;;;;;;;;5061448;28;20111;-65
2021/05/22 03:48:17;;;;;;;4.50;1.13;;;;;;;;;;5067011;28;20082;-68
2021/05/22 03:50:42;;;;;;;5.03;1.07;;;;;;;;;;5063877;28;20023;-65
2021/05/22 03:53:08;;;;;;;4.37;1.17;;;;;;;;;;5067395;28;20526;-66
2021/05/22 03:55:34;;;;;;;6.27;1.53;;;;;;;;;;5064186;28;20076;-66
2021/05/22 03:57:59;;;;;;;2.43;0.90;;;;;;;;;;5053741;28;20074;-65
2021/05/22 04:00:24;;;;;;;3.40;0.90;;;;;;;;;;5063747;28;20024;-66
2021/05/22 04:02:50;;;;;;;4.73;0.80;;;;;;;;;;5059525;28;20056;-66
2021/05/22 04:05:15;;;;;;;1.50;0.80;;;;;;;;;;5060449;28;20139;-66
2021/05/22 04:07:40;;;;;;;2.77;0.80;;;;;;;;;;5063259;28;20078;-66
2021/05/22 04:10:06;;;;;;;3.93;1.03;;;;;;;;;;5070758;28;20028;-66
2021/05/22 04:12:31;;;;;;;2.73;0.70;;;;;;;;;;5061204;28;20388;-66
2021/05/22 04:14:57;;;;;;;2.20;0.80;;;;;;;;;;5070605;28;20084;-66
2021/05/22 04:17:22;;;;;;;2.57;0.93;;;;;;;;;;5063603;28;20499;-66
2021/05/22 04:19:47;;;;;;;3.27;0.80;;;;;;;;;;5067329;28;20031;-66
2021/05/22 04:22:13;;;;;;;3.40;1.00;;;;;;;;;;5065239;28;20055;-66
2021/05/22 04:24:38;;;;;;;3.07;0.70;;;;;;;;;;5068705;28;20388;-66
2021/05/22 04:27:03;;;;;;;2.33;0.70;;;;;;;;;;5064602;28;20016;-66
2021/05/22 04:29:28;;;;;;;5.43;1.03;;;;;;;;;;5069098;28;20090;-66
2021/05/22 04:31:54;;;;;;;3.03;0.90;;;;;;;;;;5068811;28;20043;-66
2021/05/22 04:34:19;;;;;;;1.70;0.80;;;;;;;;;;5063121;28;20641;-66
2021/05/22 04:36:44;;;;;;;3.53;1.13;;;;;;;;;;5063366;28;20043;-66
2021/05/22 04:39:10;;;;;;;3.63;1.00;;;;;;;;;;5066310;28;20117;-66
2021/05/22 04:41:35;;;;;;;2.63;0.63;;;;;;;;;;5062942;28;20024;-66
2021/05/22 04:44:00;;;;;;;1.50;0.90;;;;;;;;;;5063525;28;20021;-66
2021/05/22 04:46:25;;;;;;;3.33;0.73;;;;;;;;;;5065048;28;20020;-66
2021/05/22 04:48:51;;;;;;;2.57;0.70;;;;;;;;;;5069695;28;20420;-66
2021/05/22 04:51:16;;;;;;;2.00;1.03;;;;;;;;;;5061199;28;20039;-66
2021/05/22 04:53:42;;;;;;;1.03;0.60;;;;;;;;;;5065231;28;20043;-66
2021/05/22 04:56:07;;;;;;;1.87;0.50;;;;;;;;;;5063900;28;20031;-66
2021/05/22 04:58:32;;;;;;;4.03;0.87;;;;;;;;;;5063631;28;20033;-66
2021/05/22 05:00:57;;;;;;;1.80;0.60;;;;;;;;;;5067418;28;20705;-67
2021/05/22 05:03:23;;;;;;;4.93;0.90;;;;;;;;;;5067037;28;20155;-67
2021/05/22 05:05:48;;;;;;;1.87;0.70;;;;;;;;;;5065408;28;20450;-67
2021/05/22 05:08:18;;;;;;;1.73;0.60;;;;;;;;;;5050028;28;20589;-67
2021/05/22 05:10:43;;;;;;;4.10;0.80;;;;;;;;;;5062606;28;20347;-66
2021/05/22 05:13:08;;;;;;;6.50;1.30;;;;;;;;;;5045183;28;20052;-67
2021/05/22 05:15:34;;;;;;;1.20;0.57;;;;;;;;;;5060553;28;20032;-67
2021/05/22 05:17:59;;;;;;;3.80;0.70;;;;;;;;;;5064666;28;20036;-67
2021/05/22 05:20:24;;;;;;;1.00;0.47;;;;;;;;;;5059868;28;20025;-67
2021/05/22 05:22:51;;;;;;;4.90;1.13;;;;;;;;;;5063565;28;20047;-67
2021/05/22 05:25:16;;;;;;;3.47;0.60;;;;;;;;;;5059875;28;20463;-67
2021/05/22 05:27:41;;;;;;;4.97;0.70;;;;;;;;;;5066646;28;20024;-67
2021/05/22 05:30:07;;;;;;;2.50;1.07;;;;;;;;;;5069328;28;20032;-67
2021/05/22 05:32:32;;;;;;;2.93;1.00;;;;;;;;;;5068688;28;20032;-67
2021/05/22 05:34:58;;;;;;;2.80;0.80;;;;;;;;;;5064351;28;20635;-67
2021/05/22 05:37:23;;;;;;;2.33;0.80;;;;;;;;;;5062144;28;20404;-67
2021/05/22 05:39:48;;;;;;;4.53;0.70;;;;;;;;;;5070462;28;20419;-67
2021/05/22 05:42:14;;;;;;;4.03;1.10;;;;;;;;;;5062187;28;20496;-67
2021/05/22 05:44:39;;;;;;;1.67;0.80;;;;;;;;;;5061791;28;20033;-67
2021/05/22 05:47:04;;;;;;;1.47;0.73;;;;;;;;;;5063309;28;20028;-68
2021/05/22 05:49:30;;;;;;;1.93;0.63;;;;;;;;;;5070925;28;20028;-68
2021/05/22 05:51:56;;;;;;;3.07;0.70;;;;;;;;;;5059974;28;20037;-68
2021/05/22 05:54:21;;;;;;;2.80;0.87;;;;;;;;;;5067494;28;20040;-68
2021/05/22 05:56:46;;;;;;;1.37;0.60;;;;;;;;;;5060836;28;20021;-68
2021/05/22 05:59:12;;;;;;;5.53;1.07;;;;;;;;;;5061944;28;20063;-67
2021/05/22 06:01:37;;;;;;;13.33;0.93;;;;;;;;;;5058882;28;20036;-67
2021/05/22 06:04:04;;;;;;;4.83;0.90;;;;;;;;;;5062940;28;20515;-68
2021/05/22 06:06:30;;;;;;;3.43;1.43;;;;;;;;;;5066032;28;20098;-68
2021/05/22 06:08:55;;;;;;;3.73;1.07;;;;;;;;;;5066738;28;20036;-68
2021/05/22 06:11:23;;;;;;;2.93;1.00;;;;;;;;;;5065763;28;20396;-68
2021/05/22 06:13:48;;;;;;;2.77;0.80;;;;;;;;;;5061380;28;20032;-68
2021/05/22 06:16:25;;;;;;;3.80;1.03;;;;;;;;;;5062546;28;20033;-68
2021/05/22 06:18:52;;;;;;;2.60;1.03;;;;;;;;;;5062505;28;20485;-68
2021/05/22 06:21:18;;;;;;;3.27;1.10;;;;;;;;;;5060446;28;20025;-67
2021/05/22 06:23:43;;;;;;;1.70;0.90;;;;;;;;;;5066209;28;20027;-68
2021/05/22 06:26:08;;;;;;;6.60;1.47;;;;;;;;;;5066825;28;20024;-68
2021/05/22 06:28:34;;;;;;;1.37;1.00;;;;;;;;;;5067936;28;20677;-68
2021/05/22 06:31:02;;;;;;;2.50;0.93;;;;;;;;;;5069053;28;20029;-68
2021/05/22 06:33:28;;;;;;;4.30;1.27;;;;;;;;;;5052206;28;20072;-68
2021/05/22 06:35:53;;;;;;;3.33;1.10;;;;;;;;;;5061042;28;20039;-68
2021/05/22 06:38:18;;;;;;;3.77;1.13;;;;;;;;;;5061899;28;20032;-68
2021/05/22 06:40:45;;;;;;;4.40;1.50;;;;;;;;;;5067676;28;20029;-68
2021/05/22 06:43:10;;;;;;;3.97;1.00;;;;;;;;;;5069666;28;20033;-68
2021/05/22 06:45:47;;;;;;;3.77;1.30;;;;;;;;;;5068123;28;20118;-68
2021/05/22 06:48:13;;;;;;;3.50;1.30;;;;;;;;;;5059557;28;20060;-68
2021/05/22 06:50:39;;;;;;;8.03;1.73;;;;;;;;;;5063478;28;20033;-68
2021/05/22 06:53:04;;;;;;;3.17;1.20;;;;;;;;;;5061449;28;20066;-68
2021/05/22 06:55:30;;;;;;;2.97;0.87;;;;;;;;;;5065628;28;20314;-68
2021/05/22 06:57:55;;;;;;;3.23;1.43;;;;;;;;;;5058655;28;20493;-68
2021/05/22 07:00:21;;;;;;;2.83;1.20;;;;;;;;;;5067272;28;20090;-68
2021/05/22 07:02:46;;;;;;;5.73;1.20;;;;;;;;;;5064607;28;20028;-68
2021/05/22 07:05:12;;;;;;;2.70;1.20;;;;;;;;;;5067458;28;20076;-68
2021/05/22 07:07:39;;;;;;;2.17;1.20;;;;;;;;;;5058611;28;20032;-68
2021/05/22 07:10:05;;;;;;;6.40;2.00;;;;;;;;;;5063590;28;20025;-68
2021/05/22 07:12:30;;;;;;;3.13;1.47;;;;;;;;;;5061901;28;20389;-68
2021/05/22 07:14:55;;;;;;;2.53;1.20;;;;;;;;;;5066858;28;20039;-67
2021/05/22 07:17:21;;;;;;;9.90;1.93;;;;;;;;;;5060196;28;20030;-67
2021/05/22 07:19:46;;;;;;;6.10;1.70;;;;;;;;;;5060666;28;20024;-68
2021/05/22 07:22:11;;;;;;;3.17;1.53;;;;;;;;;;5062802;28;20075;-68
2021/05/22 07:24:36;;;;;;;5.70;1.83;;;;;;;;;;5069292;28;20032;-68
2021/05/22 07:27:02;;;;;;;4.90;1.70;;;;;;;;;;5069245;28;20162;-68
2021/05/22 07:29:27;;;;;;;5.03;1.97;;;;;;;;;;5057933;28;20028;-67
2021/05/22 07:31:53;;;;;;;3.67;1.63;;;;;;;;;;5069400;28;20320;-68
2021/05/22 07:34:18;;;;;;;4.40;1.60;;;;;;;;;;5069327;28;20487;-68
2021/05/22 07:36:43;;;;;;;5.63;1.80;;;;;;;;;;5065263;28;20431;-68
2021/05/22 07:39:12;;;;;;;6.03;2.50;;;;;;;;;;5064719;28;20395;-68
2021/05/22 07:41:37;;;;;;;2.97;1.40;;;;;;;;;;5057532;28;20037;-67
2021/05/22 07:44:03;;;;;;;4.10;1.30;;;;;;;;;;5067774;28;20021;-67
2021/05/22 07:46:28;;;;;;;3.33;1.30;;;;;;;;;;5067293;28;20566;-67
2021/05/22 07:48:53;;;;;;;3.70;1.40;;;;;;;;;;5067543;28;20012;-67
2021/05/22 07:51:18;;;;;;;2.67;1.50;;;;;;;;;;5064230;28;20032;-67
2021/05/22 07:53:44;;;;;;;5.03;1.60;;;;;;;;;;5061467;28;20469;-67
2021/05/22 07:56:09;;;;;;;6.50;2.23;;;;;;;;;;5064555;28;20032;-67
2021/05/22 07:58:35;;;;;;;6.47;1.63;;;;;;;;;;5058281;28;20086;-68
2021/05/22 08:01:00;;;;;;;3.37;1.67;;;;;;;;;;5064647;28;20086;-67
2021/05/22 08:03:25;;;;;;;5.63;1.83;;;;;;;;;;5071528;28;20052;-67
2021/05/22 08:05:51;;;;;;;4.20;1.50;;;;;;;;;;5066371;28;20036;-67
2021/05/22 08:08:16;;;;;;;5.37;1.60;;;;;;;;;;5071388;28;20741;-67
2021/05/22 08:10:41;;;;;;;4.43;2.17;;;;;;;;;;5072253;28;20032;-67
2021/05/22 08:13:09;;;;;;;4.10;1.93;;;;;;;;;;5072744;28;20032;-67
2021/05/22 08:15:34;;;;;;;5.47;1.63;;;;;;;;;;5049950;28;20187;-68
2021/05/22 08:18:00;;;;;;;2.87;1.40;;;;;;;;;;5071414;28;20108;-67
2021/05/22 08:20:25;;;;;;;5.70;2.00;;;;;;;;;;5072357;28;20032;-68
2021/05/22 08:22:50;;;;;;;7.17;2.37;;;;;;;;;;5069922;28;20033;-67
2021/05/22 08:25:16;;;;;;;4.10;1.70;;;;;;;;;;5071973;28;20355;-68
2021/05/22 08:27:42;;;;;;;2.80;1.60;;;;;;;;;;5072956;28;20491;-67
2021/05/22 08:30:08;;;;;;;3.93;1.57;;;;;;;;;;5071558;28;20028;-67
2021/05/22 08:32:33;;;;;;;6.50;1.60;;;;;;;;;;5071157;28;20089;-67
2021/05/22 08:34:59;;;;;;;3.37;1.50;;;;;;;;;;5072143;28;20483;-67
2021/05/22 08:37:24;;;;;;;3.77;1.50;;;;;;;;;;5071989;28;20064;-67
2021/05/22 08:39:50;;;;;;;5.93;1.80;;;;;;;;;;5072283;28;20276;-67
2021/05/22 08:42:16;;;;;;;3.77;1.70;;;;;;;;;;5071069;28;20024;-67
2021/05/22 08:44:42;;;;;;;5.53;1.83;;;;;;;;;;5071888;28;20025;-67
2021/05/22 08:47:07;;;;;;;4.00;1.70;;;;;;;;;;5058993;28;20035;-67
2021/05/22 08:49:40;;;;;;;3.57;1.60;;;;;;;;;;5071794;28;20458;-67
2021/05/22 08:52:07;;;;;;;4.27;1.53;;;;;;;;;;5058596;28;20365;-67
2021/05/22 08:54:32;;;;;;;6.17;2.20;;;;;;;;;;5071363;28;20028;-67
2021/05/22 08:56:58;;;;;;;4.63;1.70;;;;;;;;;;5058898;28;20037;-67
2021/05/22 08:59:24;;;;;;;2.80;1.30;;;;;;;;;;5071564;28;20112;-67
2021/05/22 09:01:50;;;;;;;3.20;1.60;;;;;;;;;;5060661;28;20036;-67
2021/05/22 09:04:15;;;;;;;5.40;1.80;;;;;;;;;;5071084;28;20454;-67
2021/05/22 09:06:59;;;;;;;5.23;1.67;;;;;;;;;;5071395;28;20108;-67
2021/05/22 09:09:37;;;;;;;3.20;1.60;;;;;;;;;;5071661;28;20052;-67
2021/05/22 09:12:02;;;;;;;3.37;1.67;;;;;;;;;;5062219;28;20193;-67
2021/05/22 09:14:41;;;;;;;5.57;1.83;;;;;;;;;;5071186;28;20090;-67
2021/05/22 09:17:07;;;;;;;3.33;1.43;;;;;;;;;;5071246;28;20025;-67
2021/05/22 09:19:44;;;;;;;3.73;1.80;;;;;;;;;;5071202;28;20563;-67
2021/05/22 09:22:20;;;;;;;6.83;2.40;;;;;;;;;;5064019;28;20036;-67
2021/05/22 09:24:55;;;;;;;3.43;1.80;;;;;;;;;;5065454;28;20441;-67
2021/05/22 09:27:20;;;;;;;6.57;1.73;;;;;;;;;;5069688;28;20029;-67
2021/05/22 09:29:45;;;;;;;5.07;1.67;;;;;;;;;;5071023;28;20027;-67
2021/05/22 09:32:13;;;;;;;10.43;2.50;;;;;;;;;;5066365;28;20036;-67
2021/05/22 09:34:39;;;;;;;4.10;1.83;;;;;;;;;;5070736;28;20024;-67
2021/05/22 09:37:13;;;;;;;4.73;1.77;;;;;;;;;;5070526;28;20032;-67
2021/05/22 09:39:48;;;;;;;3.10;1.53;;;;;;;;;;5071109;28;20377;-67
2021/05/22 09:42:13;;;;;;;6.07;1.63;;;;;;;;;;5070640;28;20078;-67
2021/05/22 09:44:39;;;;;;;3.60;2.00;;;;;;;;;;5071031;28;20033;-67
2021/05/22 09:47:04;;;;;;;5.10;1.63;;;;;;;;;;5070421;28;20043;-67
2021/05/22 09:49:31;;;;;;;3.30;1.57;;;;;;;;;;5070387;28;20507;-67
2021/05/22 09:51:56;;;;;;;9.90;2.57;;;;;;;;;;5057263;28;20033;-67
2021/05/22 09:54:47;;;;;;;5.10;1.70;;;;;;;;;;5070412;28;20027;-67
2021/05/22 09:57:32;;;;;;;4.27;1.80;;;;;;;;;;5064972;28;20496;-67
2021/05/22 10:00:17;;;;;;;4.27;1.67;;;;;;;;;;5068724;28;20024;-67
2021/05/22 10:02:42;;;;;;;3.07;1.60;;;;;;;;;;5061403;28;20035;-67
2021/05/22 10:05:13;;;;;;;4.37;1.80;;;;;;;;;;5068825;28;20063;-67
2021/05/22 10:07:39;;;;;;;4.13;1.20;;;;;;;;;;5061281;28;20524;-67
2021/05/22 10:10:04;;;;;;;5.70;1.90;;;;;;;;;;5069718;28;20096;-67
2021/05/22 10:12:30;;;;;;;3.83;1.77;;;;;;;;;;5061561;28;20024;-67
2021/05/22 10:14:55;;;;;;;5.53;2.23;;;;;;;;;;5069947;28;20024;-67
2021/05/22 10:17:21;;;;;;;4.90;2.10;;;;;;;;;;5061939;28;20524;-67
2021/05/22 10:19:46;;;;;;;1.60;0.97;;;;;;;;;;5069915;28;20024;-67
2021/05/22 10:22:11;;;;;;;5.67;2.10;;;;;;;;;;5069554;28;20038;-67
2021/05/22 10:24:37;;;;;;;6.17;1.90;;;;;;;;;;5069661;28;20109;-67
2021/05/22 10:27:02;;;;;;;4.60;2.30;;;;;;;;;;5063779;28;20296;-67
2021/05/22 10:29:29;;;;;;;3.20;1.77;;;;;;;;;;5070513;28;20055;-67
2021/05/22 10:31:55;;;;;;;5.47;2.17;;;;;;;;;;5065221;28;20029;-67
2021/05/22 10:34:21;;;;;;;3.73;1.70;;;;;;;;;;5069540;28;20040;-67
2021/05/22 10:36:54;;;;;;;4.87;1.60;;;;;;;;;;5069310;28;20064;-67
2021/05/22 10:39:39;;;;;;;2.37;1.17;;;;;;;;;;5069829;28;20063;-68
2021/05/22 10:42:05;;;;;;;4.20;1.90;;;;;;;;;;5051000;28;20434;-68
2021/05/22 10:44:35;;;;;;;5.57;2.30;;;;;;;;;;5069263;28;20474;-67
2021/05/22 10:47:12;;;;;;;5.77;2.10;;;;;;;;;;5067547;28;20036;-67
2021/05/22 10:49:47;;;;;;;3.87;1.63;;;;;;;;;;5069652;28;20036;-68
2021/05/22 10:52:18;;;;;;;4.97;2.33;;;;;;;;;;5056226;28;20101;-67
2021/05/22 10:54:56;;;;;;;5.20;2.40;;;;;;;;;;5069265;28;20075;-67
2021/05/22 10:57:21;;;;;;;3.20;1.80;;;;;;;;;;5067596;28;20394;-67
2021/05/22 11:00:07;;;;;;;4.13;1.90;;;;;;;;;;5069172;28;20029;-67
2021/05/22 11:02:33;;;;;;;6.03;2.20;;;;;;;;;;5061597;28;20108;-67
2021/05/22 11:05:18;;;;;;;3.73;2.23;;;;;;;;;;5068444;28;20059;-67
2021/05/22 11:07:43;;;;;;;6.10;2.13;;;;;;;;;;5060579;28;20041;-67
2021/05/22 11:10:08;;;;;;;3.53;1.70;;;;;;;;;;5068114;28;20036;-67
2021/05/22 11:12:37;;;;;;;3.60;1.93;;;;;;;;;;5060608;28;20032;-67
2021/05/22 11:15:02;;;;;;;6.47;1.80;;;;;;;;;;5068579;28;20029;-67
2021/05/22 11:17:29;;;;;;;3.83;2.23;;;;;;;;;;5070244;28;20039;-67
2021/05/22 11:20:00;;;;;;;3.83;1.60;;;;;;;;;;5073327;28;20033;-67
2021/05/22 11:22:26;;;;;;;2.53;1.23;;;;;;;;;;5065725;28;20464;-67
2021/05/22 11:25:05;;;;;;;2.50;1.20;;;;;;;;;;5072880;28;20361;-67
2021/05/22 11:27:46;;;;;;;3.83;1.50;;;;;;;;;;5073669;28;20028;-67
2021/05/22 11:30:19;;;;;;;3.17;1.50;;;;;;;;;;5071305;28;20039;-67
2021/05/22 11:32:53;;;;;;;3.00;1.30;;;;;;;;;;5070602;28;20070;-67
2021/05/22 11:35:40;;;;;;;1.77;1.10;;;;;;;;;;5070401;28;20033;-67
2021/05/22 11:38:14;;;;;;;3.20;1.60;;;;;;;;;;5060960;28;20032;-67
2021/05/22 11:40:43;;;;;;;2.23;1.27;;;;;;;;;;5069819;28;20120;-67
2021/05/22 11:43:21;;;;;;;1.77;0.90;;;;;;;;;;5072792;28;20039;-67
2021/05/22 11:45:48;;;;;;;3.53;1.20;;;;;;;;;;5070783;28;20028;-67
2021/05/22 11:48:25;;;;;;;2.87;1.30;;;;;;;;;;5072703;28;20448;-67
2021/05/22 11:50:52;;;;;;;3.73;1.33;;;;;;;;;;5071920;28;20033;-67
2021/05/22 11:53:18;;;;;;;4.23;1.40;;;;;;;;;;5072630;28;20028;-67
2021/05/22 11:55:44;;;;;;;1.77;0.93;;;;;;;;;;5070738;28;20106;-67
2021/05/22 11:58:13;;;;;;;2.00;1.10;;;;;;;;;;5071035;28;20036;-67
2021/05/22 12:00:39;;;;;;;1.87;0.93;;;;;;;;;;5067575;28;20389;-67
2021/05/22 12:03:06;;;;;;;3.27;0.90;;;;;;;;;;5066141;28;20037;-67
2021/05/22 12:05:38;;;;;;;2.10;1.20;;;;;;;;;;5067702;28;20053;-67
2021/05/22 12:08:03;;;;;;;3.90;1.55;;;;;;;;;;5067730;28;20435;-67
2021/05/22 12:10:29;;;;;;;2.33;1.17;;;;;;;;;;5068954;28;20117;-67
2021/05/22 12:13:01;;;;;;;3.77;1.67;;;;;;;;;;5067567;28;20031;-67
2021/05/22 12:15:27;;;;;;;2.75;1.35;;;;;;;;;;5069382;28;20094;-67
2021/05/22 12:17:54;;;;;;;2.00;1.20;;;;;;;;;;5067982;28;20132;-67
2021/05/22 12:20:19;;;;;;;4.67;1.27;;;;;;;;;;5071661;28;20028;-67
2021/05/22 12:22:44;;;;;;;3.10;1.20;;;;;;;;;;5072073;28;20059;-67
2021/05/22 12:25:10;;;;;;;3.03;1.30;;;;;;;;;;5070855;28;20036;-67
2021/05/22 12:27:36;;;;;;;4.53;1.33;;;;;;;;;;5067669;28;20115;-67
2021/05/22 12:30:02;;;;;;;3.07;1.57;;;;;;;;;;5071175;28;20496;-67
2021/05/22 12:32:28;;;;;;;2.67;1.20;;;;;;;;;;5068158;28;20060;-67
2021/05/22 12:35:07;;;;;;;2.97;1.53;;;;;;;;;;5071948;28;20067;-67
2021/05/22 12:37:32;;;;;;;4.87;1.47;;;;;;;;;;5070061;28;20029;-67
2021/05/22 12:40:03;;;;;;;3.80;1.37;;;;;;;;;;5071846;28;20248;-67
2021/05/22 12:42:31;;;;;;;3.10;1.70;;;;;;;;;;5070223;28;20115;-67
2021/05/22 12:44:56;;;;;;;3.37;1.80;;;;;;;;;;5071340;28;20453;-67
2021/05/22 12:47:23;;;;;;;2.50;1.43;;;;;;;;;;5071236;28;20063;-67
2021/05/22 12:49:51;;;;;;;5.70;1.40;;;;;;;;;;5071734;28;20016;-67
2021/05/22 12:52:17;;;;;;;4.83;2.20;;;;;;;;;;5064937;28;20468;-67
2021/05/22 12:54:44;;;;;;;4.97;1.37;;;;;;;;;;5066963;28;20558;-67
2021/05/22 12:57:12;;;;;;;3.77;1.60;;;;;;;;;;5064307;28;20024;-68
2021/05/22 12:59:52;;;;;;;2.70;1.50;;;;;;;;;;5069152;28;20064;-67
2021/05/22 13:02:26;;;;;;;3.70;1.63;;;;;;;;;;5057975;28;20533;-67
2021/05/22 13:04:56;;;;;;;3.63;1.60;;;;;;;;;;5068791;28;20504;-67
2021/05/22 13:07:27;;;;;;;4.20;1.87;;;;;;;;;;5063661;28;20020;-68
2021/05/22 13:09:59;;;;;;;3.63;1.37;;;;;;;;;;5062021;28;20027;-67
2021/05/22 13:12:24;;;;;;;;;;;;;;;;;;5067449;28;20508;-67
2021/05/22 13:15:00;;;;;;;6.30;1.63;;;;;;;;;;5061422;28;19960;-68
2021/05/22 13:17:26;;;;;;;4.30;1.60;;;;;;;;;;5068182;28;20091;-67
2021/05/22 13:19:52;;;;;;;7.00;1.80;;;;;;;;;;5070384;28;20031;-67
2021/05/22 13:22:38;;;;;;;3.73;1.70;;;;;;;;;;5064779;28;20067;-67
2021/05/22 13:25:07;;;;;;;3.67;1.80;;;;;;;;;;5061197;28;20047;-67
2021/05/22 13:27:33;;;;;;;5.20;2.00;;;;;;;;;;5065106;28;20031;-67
2021/05/22 13:30:00;;;;;;;3.90;1.70;;;;;;;;;;5061200;28;20111;-66
2021/05/22 13:32:26;;;;;;;3.47;1.80;;;;;;;;;;5062041;28;20035;-67
2021/05/22 13:34:51;;;;;;;5.07;1.80;;;;;;;;;;5065475;28;20032;-67
2021/05/22 13:37:17;;;;;;;3.60;1.80;;;;;;;;;;5060545;28;20029;-67
2021/05/22 13:39:43;;;;;;;4.27;2.00;;;;;;;;;;5056535;28;20020;-67
2021/05/22 13:42:09;;;;;;;4.10;1.90;;;;;;;;;;5061395;28;20507;-67
2021/05/22 13:44:34;;;;;;;5.17;2.10;;;;;;;;;;5055396;28;20029;-67
2021/05/22 13:46:59;;;;;;;3.73;1.60;;;;;;;;;;5068718;28;20025;-67
2021/05/22 13:49:27;;;;;;;5.23;1.83;;;;;;;;;;5063964;28;20201;-67
2021/05/22 13:51:52;;;;;;;4.07;1.73;;;;;;;;;;5057354;28;20039;-67
2021/05/22 13:54:17;;;;;;;3.53;1.57;;;;;;;;;;5062597;28;20037;-67
2021/05/22 13:56:43;;;;;;;3.27;1.63;;;;;;;;;;5057479;28;20024;-67
2021/05/22 13:59:08;;;;;;;2.90;1.30;;;;;;;;;;5058033;28;20473;-67
2021/05/22 14:01:33;;;;;;;2.70;1.40;;;;;;;;;;5061459;28;20036;-67
2021/05/22 14:03:59;;;;;;;3.00;1.60;;;;;;;;;;5060995;28;20036;-67
2021/05/22 14:06:24;;;;;;;3.67;1.70;;;;;;;;;;5060714;28;20028;-67
2021/05/22 14:08:49;;;;;;;2.97;1.07;;;;;;;;;;5061152;28;20043;-67
2021/05/22 14:11:15;;;;;;;2.80;1.33;;;;;;;;;;5058100;28;20139;-67
2021/05/22 14:13:41;;;;;;;2.23;1.03;;;;;;;;;;5060175;28;20472;-67
2021/05/22 14:16:06;;;;;;;4.30;1.27;;;;;;;;;;5067561;28;20111;-67
2021/05/22 14:18:32;;;;;;;3.23;1.27;;;;;;;;;;5055714;28;20095;-67
2021/05/22 14:20:57;;;;;;;4.63;1.30;;;;;;;;;;5058450;28;20021;-67
2021/05/22 14:23:23;;;;;;;4.47;1.40;;;;;;;;;;5067595;28;20055;-67
2021/05/22 14:25:48;;;;;;;3.37;1.60;;;;;;;;;;5060411;28;20390;-67
2021/05/22 14:28:14;;;;;;;2.80;1.40;;;;;;;;;;5062532;28;20031;-66
2021/05/22 14:30:39;;;;;;;3.27;1.20;;;;;;;;;;5056873;28;20021;-66
2021/05/22 14:33:05;;;;;;;3.40;1.13;;;;;;;;;;5065082;28;20028;-67
2021/05/22 14:35:30;;;;;;;3.70;1.30;;;;;;;;;;5065125;28;20405;-67
2021/05/22 14:37:56;;;;;;;2.73;1.27;;;;;;;;;;5068986;28;20063;-66
2021/05/22 14:40:21;;;;;;;2.17;1.00;;;;;;;;;;5069208;28;20054;-66
2021/05/22 14:42:47;;;;;;;2.87;1.20;;;;;;;;;;5069347;28;20048;-67